Data for 01/01/2017

Time Sea-Level Adjusted Pressure Absolute Pressure Temperature Relative Humidity Dew Point   
(mb) (inHg) (mb) (inHg) (C) (F) (%) (C) (F)
00:05 1006 29.71 835 24.66 -9.4 15.1 72 -13.6 7.6
00:10 1005 29.68 835 24.66 -9.2 15.5 71 -13.6 7.5
00:15 1005 29.68 834 24.63 -9 15.8 72 -13.2 8.3
00:20 1005 29.68 834 24.63 -9.2 15.4 71 -13.5 7.7
00:25 1005 29.68 834 24.63 -9.6 14.8 75 -13.2 8.3
00:30 1005 29.68 834 24.63 -9.5 14.9 74 -13.4 7.9
00:35 1005 29.68 834 24.63 -9.8 14.4 76 -13.2 8.2
00:40 1005 29.68 834 24.63 -9.7 14.5 72 -13.9 6.9
00:45 1005 29.68 834 24.63 -10.7 12.8 85 -12.7 9.1
00:50 1005 29.68 834 24.63 -10.5 13.1 81 -13.1 8.4
00:55 1005 29.68 834 24.63 -9.9 14.2 77 -13.2 8.2
01:00 1005 29.68 834 24.63 -10.2 13.7 78 -13.2 8.2
01:05 1005 29.68 834 24.63 -10.5 13.1 79 -13.5 7.8
01:10 1005 29.68 834 24.63 -10.7 12.7 79 -13.7 7.3
01:15 1005 29.68 834 24.63 -10.5 13.1 80 -13.4 7.9
01:20 1005 29.68 834 24.63 -9.9 14.1 76 -13.3 8
01:25 1005 29.68 834 24.63 -10 13.9 76 -13.6 7.6
01:30 1005 29.68 834 24.63 -10.5 13.1 75 -14.1 6.7
01:35 1004 29.65 834 24.63 -11.2 11.9 79 -14.1 6.6
01:40 1005 29.68 834 24.63 -11.4 11.4 83 -13.8 7.1
01:45 1005 29.68 834 24.63 -11 12.2 82 -13.4 7.8
01:50 1005 29.68 834 24.63 -10.6 13 78 -13.7 7.3
01:55 1005 29.68 834 24.63 -10.7 12.8 78 -13.7 7.3
02:00 1005 29.68 834 24.63 -10.9 12.3 78 -14.1 6.6
02:05 1005 29.68 834 24.63 -11.1 11.9 78 -14.3 6.3
02:10 1005 29.68 834 24.63 -11.1 11.9 78 -14.2 6.4
02:15 1005 29.68 834 24.63 -11.5 11.2 80 -14.3 6.2
02:20 1005 29.68 834 24.63 -11.5 11.2 81 -14.2 6.4
02:25 1005 29.68 834 24.63 -11.7 11 80 -14.4 6.1
02:30 1005 29.68 834 24.63 -11.8 10.7 82 -14.4 6.1
02:35 1005 29.68 834 24.63 -11.6 11 81 -14.2 6.4
02:40 1005 29.68 834 24.63 -11.5 11.2 79 -14.4 6
02:45 1005 29.68 834 24.63 -11.8 10.9 82 -14.3 6.3
02:50 1005 29.68 834 24.63 -11.3 11.7 80 -14.1 6.7
02:55 1005 29.68 834 24.63 -11 12.2 78 -14.1 6.6
03:00 1005 29.68 834 24.63 -11.6 11.2 82 -14.1 6.6
03:05 1005 29.68 834 24.63 -11.6 11.1 80 -14.3 6.2
03:10 1005 29.68 834 24.63 -11.7 10.9 83 -14.1 6.7
03:15 1005 29.68 834 24.63 -11.6 11.2 80 -14.4 6.1
03:20 1005 29.68 834 24.63 -11.6 11.2 79 -14.4 6
03:25 1005 29.68 834 24.63 -11.3 11.6 78 -14.4 6.1
03:30 1005 29.68 834 24.63 -11.4 11.6 82 -13.8 7.2
03:35 1005 29.68 834 24.63 -11 12.2 79 -13.9 6.9
03:40 1005 29.68 834 24.63 -11.4 11.5 83 -13.8 7.2
03:45 1005 29.68 834 24.63 -10.9 12.4 80 -13.7 7.3
03:50 1005 29.68 834 24.63 -11.2 11.8 78 -14.4 6.2
03:55 1005 29.68 834 24.63 -11.8 10.8 76 -15.1 4.8
04:00 1005 29.68 834 24.63 -12.6 9.3 80 -15.4 4.2
04:05 1005 29.68 834 24.63 -12.8 9 86 -14.6 5.7
04:10 1005 29.68 834 24.63 -11.7 10.9 82 -14.2 6.5
04:15 1005 29.68 834 24.63 -11.5 11.4 81 -14.1 6.6
04:20 1005 29.68 834 24.63 -11.4 11.5 80 -14.2 6.4
04:25 1005 29.68 834 24.63 -11.3 11.6 79 -14.3 6.2
04:30 1005 29.68 834 24.63 -11.7 10.9 80 -14.5 5.9
04:35 1005 29.68 834 24.63 -11.7 11 81 -14.2 6.4
04:40 1004 29.65 834 24.63 -11.3 11.6 80 -14.2 6.5
04:45 1004 29.65 834 24.63 -11.3 11.7 79 -14.3 6.3
04:50 1004 29.65 834 24.63 -11.3 11.6 79 -14.4 6.2
04:55 1004 29.65 834 24.63 -11.4 11.5 79 -14.3 6.2
05:00 1004 29.65 833 24.6 -11.5 11.3 79 -14.5 6
05:05 1004 29.65 833 24.6 -11.7 10.9 78 -14.8 5.4
05:10 1004 29.65 833 24.6 -12 10.4 81 -14.7 5.5
05:15 1004 29.65 833 24.6 -11.5 11.2 80 -14.3 6.2
05:20 1004 29.65 833 24.6 -10.7 12.7 77 -14 6.7
05:25 1004 29.65 833 24.6 -10.4 13.3 75 -14 6.7
05:30 1004 29.65 833 24.6 -10.8 12.6 80 -13.7 7.4
05:35 1004 29.65 833 24.6 -10.6 12.8 80 -13.5 7.7
05:40 1004 29.65 833 24.6 -10.3 13.4 79 -13.4 7.9
05:45 1004 29.65 833 24.6 -10.4 13.3 76 -13.8 7.2
05:50 1004 29.65 833 24.6 -10.4 13.3 80 -13.3 8.1
05:55 1004 29.65 833 24.6 -10.7 12.7 78 -13.8 7.1
06:00 1004 29.65 833 24.6 -11.4 11.6 80 -14.1 6.5
06:05 1004 29.65 833 24.6 -10.9 12.3 78 -14.1 6.6
06:10 1004 29.65 833 24.6 -10.7 12.7 77 -14 6.8
06:15 1004 29.65 833 24.6 -10.9 12.5 77 -14.2 6.4
06:20 1004 29.65 833 24.6 -10.8 12.6 77 -14.1 6.6
06:25 1004 29.65 833 24.6 -11 12.3 78 -14.1 6.6
06:30 1004 29.65 833 24.6 -10.8 12.5 78 -14 6.8
06:35 1004 29.65 833 24.6 -10.7 12.7 76 -14.1 6.6
06:40 1004 29.65 833 24.6 -10.4 13.3 75 -14 6.9
06:45 1004 29.65 833 24.6 -10.2 13.7 75 -13.8 7.1
06:50 1004 29.65 833 24.6 -9.8 14.3 73 -13.7 7.3
06:55 1004 29.65 833 24.6 -9.6 14.8 73 -13.6 7.6
07:00 1004 29.65 834 24.63 -9.6 14.7 74 -13.5 7.7
07:05 1004 29.65 834 24.63 -10 14.1 75 -13.6 7.6
07:10 1004 29.65 834 24.63 -10.1 13.8 76 -13.6 7.6
07:15 1004 29.65 834 24.63 -10 14 75 -13.7 7.4
07:20 1005 29.68 834 24.63 -10 14.1 76 -13.5 7.8
07:25 1004 29.65 834 24.63 -10.1 13.9 76 -13.6 7.6
07:30 1004 29.65 834 24.63 -10.1 13.9 75 -13.6 7.5
07:35 1004 29.65 834 24.63 -10 14 75 -13.6 7.5
07:40 1005 29.68 834 24.63 -10.1 13.9 77 -13.4 7.8
07:45 1005 29.68 834 24.63 -10.2 13.7 78 -13.3 8
07:50 1005 29.68 834 24.63 -10.3 13.4 78 -13.4 7.8
07:55 1005 29.68 834 24.63 -10.5 13 79 -13.5 7.7
08:00 1005 29.68 834 24.63 -10.5 13 78 -13.7 7.3
08:05 1005 29.68 834 24.63 -10.5 13.2 77 -13.7 7.3
08:10 1005 29.68 834 24.63 -10.2 13.7 77 -13.4 7.9
08:15 1005 29.68 834 24.63 -9.9 14.1 77 -13.3 8
08:20 1005 29.68 834 24.63 -9.7 14.5 75 -13.4 8
08:25 1005 29.68 834 24.63 -9.6 14.7 76 -13.2 8.3
08:30 1005 29.68 834 24.63 -9.4 15 74 -13.3 8.1
08:35 1005 29.68 834 24.63 -9.3 15.3 73 -13.3 8.1
08:40 1005 29.68 834 24.63 -9.5 14.9 74 -13.4 7.9
08:45 1005 29.68 834 24.63 -9.4 15 74 -13.3 8.1
08:50 1005 29.68 834 24.63 -9.2 15.5 73 -13.2 8.3
08:55 1005 29.68 834 24.63 -9.1 15.7 70 -13.5 7.6
09:00 1005 29.68 834 24.63 -8.8 16.1 71 -13.2 8.2
09:05 1005 29.68 834 24.63 -8.7 16.4 72 -12.9 8.8
09:10 1005 29.68 834 24.63 -8.7 16.3 73 -12.8 8.9
09:15 1005 29.68 834 24.63 -8.9 16.1 73 -12.9 8.8
09:20 1005 29.68 834 24.63 -8.8 16.1 73 -12.8 8.9
09:25 1005 29.68 834 24.63 -8.9 16.1 72 -13 8.7
09:30 1005 29.68 834 24.63 -8.8 16.1 71 -13.1 8.4
09:35 1005 29.68 834 24.63 -8.8 16.1 70 -13.3 8
09:40 1005 29.68 835 24.66 -8.8 16.3 69 -13.4 7.9
09:45 1005 29.68 835 24.66 -8.7 16.4 69 -13.4 7.8
09:50 1005 29.68 835 24.66 -8.5 16.7 68 -13.4 7.9
09:55 1005 29.68 835 24.66 -8.5 16.7 67 -13.6 7.5
10:00 1005 29.68 835 24.66 -8.6 16.5 66 -13.9 7
10:05 1005 29.68 834 24.63 -8.5 16.6 67 -13.7 7.4
10:10 1005 29.68 834 24.63 -8.6 16.5 67 -13.7 7.4
10:15 1005 29.68 834 24.63 -8.5 16.8 65 -14 6.9
10:20 1005 29.68 834 24.63 -8.6 16.6 65 -14 6.9
10:25 1005 29.68 835 24.66 -8.6 16.4 65 -14 6.8
10:30 1005 29.68 835 24.66 -8.1 17.4 62 -14.1 6.7
10:35 1005 29.68 835 24.66 -7.5 18.5 60 -14 6.8
10:40 1006 29.71 835 24.66 -7 19.3 58 -14 6.8
10:45 1005 29.68 835 24.66 -6.9 19.6 59 -13.7 7.3
10:50 1005 29.68 835 24.66 -6.8 19.7 58 -13.8 7.2
10:55 1005 29.68 835 24.66 -6.9 19.5 60 -13.4 7.8
11:00 1005 29.68 835 24.66 -7.2 19.1 60 -13.6 7.5
11:05 1005 29.68 835 24.66 -7.4 18.7 61 -13.8 7.2
11:10 1005 29.68 834 24.63 -6.9 19.5 58 -13.8 7.1
11:15 1005 29.68 834 24.63 -7 19.3 59 -13.8 7.2
11:20 1005 29.68 834 24.63 -7.5 18.5 59 -14.2 6.5
11:25 1005 29.68 834 24.63 -7.5 18.5 60 -13.9 6.9
11:30 1005 29.68 834 24.63 -7.1 19.3 59 -13.8 7.1
11:35 1005 29.68 834 24.63 -6.5 20.3 56 -13.8 7.1
11:40 1005 29.68 834 24.63 -6.3 20.7 56 -13.7 7.3
11:45 1005 29.68 834 24.63 -6.2 20.9 56 -13.6 7.6
11:50 1005 29.68 834 24.63 -6.1 21 55 -13.7 7.3
11:55 1005 29.68 834 24.63 -6.2 20.8 56 -13.6 7.5
12:00 1005 29.68 834 24.63 -6.4 20.6 56 -13.9 7
12:05 1005 29.68 834 24.63 -6 21.1 55 -13.7 7.4
12:10 1005 29.68 834 24.63 -5.7 21.7 54 -13.6 7.6
12:15 1005 29.68 834 24.63 -5.7 21.8 53 -13.9 7
12:20 1005 29.68 834 24.63 -6 21.3 54 -13.8 7.2
12:25 1005 29.68 834 24.63 -6 21.3 54 -13.8 7.2
12:30 1005 29.68 834 24.63 -6.1 21.1 56 -13.5 7.8
12:35 1005 29.68 834 24.63 -6.4 20.5 57 -13.6 7.5
12:40 1005 29.68 834 24.63 -6.6 20.2 56 -13.9 6.9
12:45 1005 29.68 834 24.63 -6.5 20.3 55 -14.1 6.6
12:50 1005 29.68 834 24.63 -6.8 19.8 57 -14 6.7
12:55 1005 29.68 834 24.63 -6.8 19.7 57 -13.9 7
13:00 1005 29.68 834 24.63 -7 19.3 58 -14 6.8
13:05 1005 29.68 834 24.63 -7.2 19.1 58 -14 6.8
13:10 1005 29.68 834 24.63 -7.2 19 59 -13.9 7
13:15 1005 29.68 835 24.66 -7.3 18.8 60 -13.8 7.1
13:20 1005 29.68 835 24.66 -7.4 18.6 63 -13.4 7.9
13:25 1005 29.68 835 24.66 -7.6 18.3 64 -13.4 7.9
13:30 1005 29.68 835 24.66 -7.8 17.9 65 -13.2 8.2
13:35 1005 29.68 835 24.66 -7.8 18 65 -13.4 8
13:40 1005 29.68 835 24.66 -7.8 17.9 66 -13.2 8.2
13:45 1005 29.68 835 24.66 -7.7 18.1 65 -13.2 8.3
13:50 1005 29.68 835 24.66 -7.9 17.8 66 -13.2 8.2
13:55 1005 29.68 835 24.66 -7.9 17.8 68 -12.9 8.8
14:00 1005 29.68 835 24.66 -7.8 17.9 68 -12.7 9.2
14:05 1005 29.68 835 24.66 -8.2 17.2 72 -12.4 9.6
14:10 1006 29.71 835 24.66 -8.4 16.9 73 -12.4 9.6
14:15 1006 29.71 835 24.66 -8.1 17.4 73 -12.1 10.3
14:20 1006 29.71 835 24.66 -8 17.7 73 -11.9 10.5
14:25 1006 29.71 835 24.66 -7.7 18.2 73 -11.7 11
14:30 1006 29.71 835 24.66 -8 17.6 75 -11.7 11
14:35 1006 29.71 835 24.66 -8.1 17.4 75 -11.7 10.9
14:40 1006 29.71 835 24.66 -8.3 17.1 78 -11.5 11.2
14:45 1006 29.71 835 24.66 -8.3 17 79 -11.4 11.5
14:50 1006 29.71 835 24.66 -8 17.7 78 -11.1 12
14:55 1006 29.71 835 24.66 -8.1 17.5 79 -11.1 12.1
15:00 1006 29.71 835 24.66 -8.1 17.5 79 -11.2 11.9
15:05 1006 29.71 835 24.66 -8 17.6 78 -11.1 11.9
15:10 1006 29.71 835 24.66 -8 17.6 79 -11.1 12
15:15 1006 29.71 835 24.66 -8.2 17.3 79 -11.3 11.7
15:20 1006 29.71 835 24.66 -8.4 16.9 81 -11.1 12.1
15:25 1006 29.71 835 24.66 -8.4 16.9 81 -11.1 12
15:30 1006 29.71 835 24.66 -8.4 17 81 -11 12.2
15:35 1006 29.71 835 24.66 -8.5 16.7 82 -11.1 12.1
15:40 1006 29.71 835 24.66 -8.8 16.2 82 -11.4 11.6
15:45 1006 29.71 835 24.66 -9.1 15.7 81 -11.7 10.9
15:50 1006 29.71 836 24.69 -9.3 15.2 82 -11.9 10.5
15:55 1006 29.71 836 24.69 -9.5 15 80 -12.2 10
16:00 1007 29.74 836 24.69 -9.9 14.2 80 -12.7 9.2
16:05 1007 29.74 836 24.69 -10.3 13.5 82 -12.8 9
16:10 1007 29.74 836 24.69 -10.4 13.4 82 -12.8 8.9
16:15 1007 29.74 836 24.69 -10.6 13 83 -12.9 8.7
16:20 1007 29.74 836 24.69 -10.6 12.9 84 -12.8 8.9
16:25 1007 29.74 836 24.69 -10.7 12.8 83 -13 8.7
16:30 1007 29.74 836 24.69 -10.8 12.5 84 -13 8.6
16:35 1007 29.74 836 24.69 -10.9 12.4 85 -13 8.7
16:40 1007 29.74 836 24.69 -11 12.3 84 -13.1 8.4
16:45 1007 29.74 836 24.69 -11.1 12.1 85 -13.2 8.3
16:50 1007 29.74 837 24.72 -11.1 12 84 -13.3 8
16:55 1007 29.74 837 24.72 -11.4 11.5 85 -13.5 7.7
17:00 1008 29.77 837 24.72 -11.5 11.3 85 -13.6 7.5
17:05 1008 29.77 837 24.72 -11.6 11.1 85 -13.7 7.4
17:10 1008 29.77 837 24.72 -11.7 10.9 84 -13.9 7.1
17:15 1008 29.77 837 24.72 -11.9 10.6 84 -14.1 6.7
17:20 1008 29.77 837 24.72 -12 10.5 84 -14.1 6.6
17:25 1008 29.77 837 24.72 -12.1 10.2 84 -14.3 6.2
17:30 1008 29.77 837 24.72 -12.3 10 84 -14.4 6.1
17:35 1008 29.77 837 24.72 -12.3 9.8 84 -14.4 6
17:40 1008 29.77 837 24.72 -12.4 9.7 84 -14.6 5.8
17:45 1008 29.77 837 24.72 -12.5 9.5 84 -14.7 5.6
17:50 1008 29.77 837 24.72 -12.5 9.6 83 -14.8 5.4
17:55 1008 29.77 837 24.72 -12.5 9.5 83 -14.9 5.2
18:00 1008 29.77 838 24.75 -12.6 9.3 83 -15 5
18:05 1008 29.77 838 24.75 -12.8 8.9 82 -15.3 4.5
18:10 1008 29.77 838 24.75 -12.9 8.8 82 -15.3 4.4
18:15 1009 29.8 838 24.75 -12.9 8.8 82 -15.4 4.3
18:20 1009 29.8 838 24.75 -13.1 8.5 82 -15.5 4
18:25 1009 29.8 838 24.75 -13.1 8.5 82 -15.5 4.2
18:30 1009 29.8 838 24.75 -13.1 8.5 82 -15.5 4.1
18:35 1009 29.8 838 24.75 -13.2 8.2 82 -15.6 3.9
18:40 1009 29.8 838 24.75 -13.3 8.1 82 -15.7 3.7
18:45 1009 29.8 838 24.75 -13.4 8 82 -15.8 3.5
18:50 1009 29.8 838 24.75 -13.5 7.7 83 -15.8 3.5
18:55 1009 29.8 838 24.75 -13.5 7.7 82 -16 3.2
19:00 1009 29.8 838 24.75 -13.5 7.6 81 -16.1 3.1
19:05 1009 29.8 838 24.75 -13.7 7.4 81 -16.2 2.8
19:10 1009 29.8 838 24.75 -13.7 7.3 82 -16.2 2.8
19:15 1009 29.8 838 24.75 -13.7 7.4 81 -16.2 2.8
19:20 1009 29.8 838 24.75 -13.8 7.1 81 -16.3 2.6
19:25 1009 29.8 838 24.75 -13.9 7 81 -16.4 2.5
19:30 1009 29.8 838 24.75 -14 6.9 81 -16.5 2.2
19:35 1009 29.8 838 24.75 -14 6.7 81 -16.7 1.9
19:40 1009 29.8 839 24.78 -14.2 6.5 80 -16.9 1.6
19:45 1009 29.8 839 24.78 -14.2 6.4 80 -17 1.4
19:50 1010 29.83 839 24.78 -14.3 6.2 80 -17.1 1.2
19:55 1010 29.83 839 24.78 -14.4 6 79 -17.3 0.8
20:00 1010 29.83 839 24.78 -14.5 5.8 79 -17.5 0.5
20:05 1010 29.83 839 24.78 -14.5 5.8 78 -17.5 0.4
20:10 1010 29.83 839 24.78 -14.5 5.8 78 -17.6 0.3
20:15 1010 29.83 839 24.78 -14.5 5.9 78 -17.6 0.4
20:20 1010 29.83 839 24.78 -14.5 6 78 -17.5 0.5
20:25 1010 29.83 839 24.78 -14.4 6.1 78 -17.5 0.5
20:30 1010 29.83 839 24.78 -14.4 6.1 78 -17.4 0.6
20:35 1010 29.83 839 24.78 -14.4 6.2 79 -17.2 1
20:40 1010 29.83 839 24.78 -14.3 6.3 77 -17.4 0.6
20:45 1010 29.83 839 24.78 -14.4 6.2 79 -17.2 1
20:50 1010 29.83 839 24.78 -14.2 6.4 77 -17.3 0.8
20:55 1010 29.83 839 24.78 -14.4 6.2 79 -17.3 0.9
21:00 1010 29.83 839 24.78 -14.4 6 78 -17.4 0.7
21:05 1010 29.83 839 24.78 -14.4 6 79 -17.4 0.8
21:10 1010 29.83 839 24.78 -14.4 6.2 79 -17.2 1
21:15 1010 29.83 839 24.78 -14.3 6.2 80 -17.1 1.3
21:20 1010 29.83 839 24.78 -14.3 6.3 79 -17.1 1.2
21:25 1010 29.83 839 24.78 -14.4 6.1 80 -17.1 1.3
21:30 1010 29.83 839 24.78 -14.4 6.1 81 -17 1.4
21:35 1010 29.83 839 24.78 -14.5 6 80 -17.2 1.1
21:40 1010 29.83 839 24.78 -14.5 5.8 81 -17.2 1.1
21:45 1010 29.83 839 24.78 -14.6 5.8 82 -17.1 1.3
21:50 1010 29.83 839 24.78 -14.5 5.9 81 -17.1 1.2
21:55 1010 29.83 839 24.78 -14.5 6 80 -17.2 1.1
22:00 1010 29.83 840 24.81 -14.6 5.7 81 -17.1 1.2
22:05 1010 29.83 840 24.81 -14.5 6 80 -17.2 1.1
22:10 1010 29.83 840 24.81 -14.5 6 80 -17.1 1.2
22:15 1010 29.83 840 24.81 -14.5 5.9 79 -17.3 0.8
22:20 1010 29.83 840 24.81 -14.7 5.6 81 -17.3 0.8
22:25 1010 29.83 840 24.81 -14.8 5.4 81 -17.4 0.7
22:30 1010 29.83 840 24.81 -14.8 5.4 81 -17.4 0.8
22:35 1010 29.83 840 24.81 -14.8 5.4 81 -17.3 0.8
22:40 1011 29.85 840 24.81 -14.8 5.4 81 -17.4 0.6
22:45 1011 29.85 840 24.81 -14.9 5.3 82 -17.3 0.9
22:50 1011 29.85 840 24.81 -14.8 5.3 81 -17.4 0.7
22:55 1011 29.85 840 24.81 -14.9 5.2 80 -17.6 0.4
23:00 1010 29.83 840 24.81 -15 5 80 -17.7 0.2
23:05 1010 29.83 840 24.81 -14.9 5.2 79 -17.7 0.2
23:10 1011 29.85 840 24.81 -14.9 5.3 80 -17.6 0.2
23:15 1011 29.85 840 24.81 -15 5.1 81 -17.5 0.4
23:20 1010 29.83 840 24.81 -14.8 5.3 82 -17.3 0.9
23:25 1010 29.83 840 24.81 -14.8 5.3 81 -17.5 0.5
23:30 1010 29.83 840 24.81 -14.8 5.3 79 -17.8 0
23:35 1011 29.85 840 24.81 -14.7 5.6 76 -18 -0.4
23:40 1011 29.85 840 24.81 -14.5 5.9 74 -18.2 -0.8
23:45 1011 29.85 840 24.81 -14.5 6 70 -18.8 -1.8
23:50 1011 29.85 840 24.81 -14.5 5.9 71 -18.6 -1.5
23:55 1011 29.85 840 24.81 -14.6 5.8 72 -18.5 -1.3
24:00 1011 29.85 840 24.81 -14.6 5.7 73 -18.5 -1.2